sensor_id;sensor_type;location;lat;lon;timestamp;P1;durP1;ratioP1;P2;durP2;ratioP2
67248;SDS011;54162;54.300;18.592;2022-08-19T00:00:04;25.17;;;16.27;;
67248;SDS011;54162;54.300;18.592;2022-08-19T00:02:33;23.27;;;16.70;;
67248;SDS011;54162;54.300;18.592;2022-08-19T00:04:59;24.08;;;17.23;;
67248;SDS011;54162;54.300;18.592;2022-08-19T00:07:24;24.87;;;16.83;;
67248;SDS011;54162;54.300;18.592;2022-08-19T00:09:50;24.63;;;16.98;;
67248;SDS011;54162;54.300;18.592;2022-08-19T00:12:15;22.47;;;16.00;;
67248;SDS011;54162;54.300;18.592;2022-08-19T00:14:41;25.67;;;16.67;;
67248;SDS011;54162;54.300;18.592;2022-08-19T00:17:07;27.00;;;17.13;;
67248;SDS011;54162;54.300;18.592;2022-08-19T00:19:35;25.25;;;17.13;;
67248;SDS011;54162;54.300;18.592;2022-08-19T00:22:00;31.30;;;17.90;;
67248;SDS011;54162;54.300;18.592;2022-08-19T00:24:27;27.13;;;17.07;;
67248;SDS011;54162;54.300;18.592;2022-08-19T00:26:54;27.25;;;17.85;;
67248;SDS011;54162;54.300;18.592;2022-08-19T00:29:21;27.80;;;18.27;;
67248;SDS011;54162;54.300;18.592;2022-08-19T00:31:48;28.55;;;18.52;;
67248;SDS011;54162;54.300;18.592;2022-08-19T00:34:15;27.15;;;17.27;;
67248;SDS011;54162;54.300;18.592;2022-08-19T00:36:41;28.87;;;16.97;;
67248;SDS011;54162;54.300;18.592;2022-08-19T00:39:08;25.95;;;17.50;;
67248;SDS011;54162;54.300;18.592;2022-08-19T00:41:34;25.93;;;17.10;;
67248;SDS011;54162;54.300;18.592;2022-08-19T00:46:37;30.30;;;18.45;;
67248;SDS011;54162;54.300;18.592;2022-08-19T00:49:39;26.67;;;17.70;;
67248;SDS011;54162;54.300;18.592;2022-08-19T00:52:02;26.50;;;17.88;;
67248;SDS011;54162;54.300;18.592;2022-08-19T00:54:37;26.23;;;18.02;;
67248;SDS011;54162;54.300;18.592;2022-08-19T00:57:05;27.10;;;17.10;;
67248;SDS011;54162;54.300;18.592;2022-08-19T00:59:35;28.67;;;17.42;;
67248;SDS011;54162;54.300;18.592;2022-08-19T01:02:04;25.83;;;17.80;;
67248;SDS011;54162;54.300;18.592;2022-08-19T01:04:30;26.75;;;18.77;;
67248;SDS011;54162;54.300;18.592;2022-08-19T01:06:55;27.33;;;17.80;;
67248;SDS011;54162;54.300;18.592;2022-08-19T01:09:22;29.73;;;18.92;;
67248;SDS011;54162;54.300;18.592;2022-08-19T01:11:47;29.00;;;18.52;;
67248;SDS011;54162;54.300;18.592;2022-08-19T01:14:13;32.77;;;18.63;;
67248;SDS011;54162;54.300;18.592;2022-08-19T01:16:41;29.23;;;18.42;;
67248;SDS011;54162;54.300;18.592;2022-08-19T01:19:24;25.20;;;16.95;;
67248;SDS011;54162;54.300;18.592;2022-08-19T01:22:04;26.15;;;17.40;;
67248;SDS011;54162;54.300;18.592;2022-08-19T01:24:36;26.83;;;17.23;;
67248;SDS011;54162;54.300;18.592;2022-08-19T01:27:05;24.92;;;17.60;;
67248;SDS011;54162;54.300;18.592;2022-08-19T01:29:31;33.07;;;18.07;;
67248;SDS011;54162;54.300;18.592;2022-08-19T01:31:57;28.88;;;18.65;;
67248;SDS011;54162;54.300;18.592;2022-08-19T01:34:23;28.98;;;19.13;;
67248;SDS011;54162;54.300;18.592;2022-08-19T01:36:49;27.37;;;18.60;;
67248;SDS011;54162;54.300;18.592;2022-08-19T01:39:16;27.55;;;18.98;;
67248;SDS011;54162;54.300;18.592;2022-08-19T01:41:46;28.75;;;19.67;;
67248;SDS011;54162;54.300;18.592;2022-08-19T01:44:11;27.05;;;19.15;;
67248;SDS011;54162;54.300;18.592;2022-08-19T01:46:37;27.90;;;19.23;;
67248;SDS011;54162;54.300;18.592;2022-08-19T01:49:04;28.02;;;18.80;;
67248;SDS011;54162;54.300;18.592;2022-08-19T01:51:30;29.47;;;19.27;;
67248;SDS011;54162;54.300;18.592;2022-08-19T01:53:57;30.17;;;18.85;;
67248;SDS011;54162;54.300;18.592;2022-08-19T01:56:23;27.02;;;17.88;;
67248;SDS011;54162;54.300;18.592;2022-08-19T01:58:54;35.47;;;20.23;;
67248;SDS011;54162;54.300;18.592;2022-08-19T02:01:25;32.08;;;21.05;;
67248;SDS011;54162;54.300;18.592;2022-08-19T02:03:50;31.87;;;19.43;;
67248;SDS011;54162;54.300;18.592;2022-08-19T02:06:18;29.08;;;20.00;;
67248;SDS011;54162;54.300;18.592;2022-08-19T02:08:44;33.20;;;21.00;;
67248;SDS011;54162;54.300;18.592;2022-08-19T02:11:17;30.75;;;20.15;;
67248;SDS011;54162;54.300;18.592;2022-08-19T02:13:51;30.70;;;19.10;;
67248;SDS011;54162;54.300;18.592;2022-08-19T02:16:18;32.17;;;19.33;;
67248;SDS011;54162;54.300;18.592;2022-08-19T02:18:45;31.20;;;20.38;;
67248;SDS011;54162;54.300;18.592;2022-08-19T02:21:13;25.23;;;18.23;;
67248;SDS011;54162;54.300;18.592;2022-08-19T02:23:43;27.40;;;17.38;;
67248;SDS011;54162;54.300;18.592;2022-08-19T02:26:09;28.03;;;16.93;;
67248;SDS011;54162;54.300;18.592;2022-08-19T02:28:35;24.52;;;16.27;;
67248;SDS011;54162;54.300;18.592;2022-08-19T02:31:02;30.60;;;17.15;;
67248;SDS011;54162;54.300;18.592;2022-08-19T02:33:28;24.73;;;15.47;;
67248;SDS011;54162;54.300;18.592;2022-08-19T02:35:54;25.20;;;16.88;;
67248;SDS011;54162;54.300;18.592;2022-08-19T02:38:20;27.43;;;16.53;;
67248;SDS011;54162;54.300;18.592;2022-08-19T02:40:58;23.73;;;15.27;;
67248;SDS011;54162;54.300;18.592;2022-08-19T02:43:26;24.67;;;14.68;;
67248;SDS011;54162;54.300;18.592;2022-08-19T02:45:53;27.60;;;16.40;;
67248;SDS011;54162;54.300;18.592;2022-08-19T02:48:19;28.63;;;15.67;;
67248;SDS011;54162;54.300;18.592;2022-08-19T02:50:46;24.02;;;15.60;;
67248;SDS011;54162;54.300;18.592;2022-08-19T02:53:13;23.85;;;16.15;;
67248;SDS011;54162;54.300;18.592;2022-08-19T02:55:42;25.13;;;16.37;;
67248;SDS011;54162;54.300;18.592;2022-08-19T02:58:09;24.80;;;16.27;;
67248;SDS011;54162;54.300;18.592;2022-08-19T03:00:35;26.23;;;17.23;;
67248;SDS011;54162;54.300;18.592;2022-08-19T03:03:01;23.80;;;16.20;;
67248;SDS011;54162;54.300;18.592;2022-08-19T03:05:27;27.70;;;16.00;;
67248;SDS011;54162;54.300;18.592;2022-08-19T03:07:52;26.23;;;14.90;;
67248;SDS011;54162;54.300;18.592;2022-08-19T03:10:18;23.42;;;15.25;;
67248;SDS011;54162;54.300;18.592;2022-08-19T03:12:43;24.77;;;15.83;;
67248;SDS011;54162;54.300;18.592;2022-08-19T03:15:11;22.02;;;15.55;;
67248;SDS011;54162;54.300;18.592;2022-08-19T03:17:36;25.97;;;15.30;;
67248;SDS011;54162;54.300;18.592;2022-08-19T03:20:02;21.27;;;14.65;;
67248;SDS011;54162;54.300;18.592;2022-08-19T03:22:29;25.40;;;16.20;;
67248;SDS011;54162;54.300;18.592;2022-08-19T03:24:55;28.60;;;17.50;;
67248;SDS011;54162;54.300;18.592;2022-08-19T03:27:20;27.75;;;17.55;;
67248;SDS011;54162;54.300;18.592;2022-08-19T03:29:46;27.23;;;17.47;;
67248;SDS011;54162;54.300;18.592;2022-08-19T03:32:12;26.90;;;18.27;;
67248;SDS011;54162;54.300;18.592;2022-08-19T03:34:37;27.63;;;19.00;;
67248;SDS011;54162;54.300;18.592;2022-08-19T03:37:07;29.13;;;19.42;;
67248;SDS011;54162;54.300;18.592;2022-08-19T03:39:35;29.83;;;18.67;;
67248;SDS011;54162;54.300;18.592;2022-08-19T03:42:02;29.90;;;19.63;;
67248;SDS011;54162;54.300;18.592;2022-08-19T03:44:28;30.35;;;18.77;;
67248;SDS011;54162;54.300;18.592;2022-08-19T03:46:56;32.55;;;19.88;;
67248;SDS011;54162;54.300;18.592;2022-08-19T03:49:24;29.85;;;19.55;;
67248;SDS011;54162;54.300;18.592;2022-08-19T03:51:52;35.13;;;21.50;;
67248;SDS011;54162;54.300;18.592;2022-08-19T03:54:20;34.07;;;22.33;;
67248;SDS011;54162;54.300;18.592;2022-08-19T03:56:51;35.33;;;21.95;;
67248;SDS011;54162;54.300;18.592;2022-08-19T03:59:20;37.47;;;22.55;;
67248;SDS011;54162;54.300;18.592;2022-08-19T04:01:52;35.50;;;22.25;;
67248;SDS011;54162;54.300;18.592;2022-08-19T04:04:19;30.95;;;21.05;;
67248;SDS011;54162;54.300;18.592;2022-08-19T04:06:44;38.63;;;21.27;;
67248;SDS011;54162;54.300;18.592;2022-08-19T04:09:12;33.22;;;20.88;;
67248;SDS011;54162;54.300;18.592;2022-08-19T04:11:38;34.20;;;20.60;;
67248;SDS011;54162;54.300;18.592;2022-08-19T04:14:07;32.25;;;20.60;;
67248;SDS011;54162;54.300;18.592;2022-08-19T04:16:34;33.35;;;20.65;;
67248;SDS011;54162;54.300;18.592;2022-08-19T04:19:00;34.07;;;20.83;;
67248;SDS011;54162;54.300;18.592;2022-08-19T04:21:28;37.13;;;20.95;;
67248;SDS011;54162;54.300;18.592;2022-08-19T04:23:54;34.25;;;20.75;;
67248;SDS011;54162;54.300;18.592;2022-08-19T04:26:22;31.55;;;20.98;;
67248;SDS011;54162;54.300;18.592;2022-08-19T04:28:49;34.30;;;20.10;;
67248;SDS011;54162;54.300;18.592;2022-08-19T04:31:20;33.53;;;20.03;;
67248;SDS011;54162;54.300;18.592;2022-08-19T04:33:47;29.77;;;20.30;;
67248;SDS011;54162;54.300;18.592;2022-08-19T04:36:23;31.15;;;18.42;;
67248;SDS011;54162;54.300;18.592;2022-08-19T04:38:58;30.17;;;18.30;;
67248;SDS011;54162;54.300;18.592;2022-08-19T04:41:27;25.50;;;18.00;;
67248;SDS011;54162;54.300;18.592;2022-08-19T04:44:11;32.47;;;18.40;;
67248;SDS011;54162;54.300;18.592;2022-08-19T04:46:37;27.00;;;16.83;;
67248;SDS011;54162;54.300;18.592;2022-08-19T04:49:04;25.65;;;16.65;;
67248;SDS011;54162;54.300;18.592;2022-08-19T04:51:31;26.73;;;15.75;;
67248;SDS011;54162;54.300;18.592;2022-08-19T04:53:57;25.23;;;16.07;;
67248;SDS011;54162;54.300;18.592;2022-08-19T04:56:25;24.45;;;16.38;;
67248;SDS011;54162;54.300;18.592;2022-08-19T04:58:51;27.17;;;15.68;;
67248;SDS011;54162;54.300;18.592;2022-08-19T05:01:19;21.38;;;14.63;;
67248;SDS011;54162;54.300;18.592;2022-08-19T05:03:50;25.80;;;15.85;;
67248;SDS011;54162;54.300;18.592;2022-08-19T05:06:16;24.70;;;14.53;;
67248;SDS011;54162;54.300;18.592;2022-08-19T05:08:43;27.90;;;16.17;;
67248;SDS011;54162;54.300;18.592;2022-08-19T05:11:14;25.27;;;15.90;;
67248;SDS011;54162;54.300;18.592;2022-08-19T05:14:00;25.70;;;16.10;;
67248;SDS011;54162;54.300;18.592;2022-08-19T05:16:26;22.63;;;15.55;;
67248;SDS011;54162;54.300;18.592;2022-08-19T05:18:52;23.98;;;15.77;;
67248;SDS011;54162;54.300;18.592;2022-08-19T05:21:38;27.07;;;15.93;;
67248;SDS011;54162;54.300;18.592;2022-08-19T05:24:23;24.35;;;15.57;;
67248;SDS011;54162;54.300;18.592;2022-08-19T05:26:50;21.08;;;14.30;;
67248;SDS011;54162;54.300;18.592;2022-08-19T05:29:18;22.27;;;15.18;;
67248;SDS011;54162;54.300;18.592;2022-08-19T05:31:48;20.38;;;14.40;;
67248;SDS011;54162;54.300;18.592;2022-08-19T05:34:14;20.83;;;13.87;;
67248;SDS011;54162;54.300;18.592;2022-08-19T05:36:42;21.55;;;14.57;;
67248;SDS011;54162;54.300;18.592;2022-08-19T05:39:11;21.52;;;14.50;;
67248;SDS011;54162;54.300;18.592;2022-08-19T05:41:44;22.15;;;14.13;;
67248;SDS011;54162;54.300;18.592;2022-08-19T05:44:12;19.83;;;13.80;;
67248;SDS011;54162;54.300;18.592;2022-08-19T05:46:38;21.63;;;14.10;;
67248;SDS011;54162;54.300;18.592;2022-08-19T05:49:07;22.70;;;14.20;;
67248;SDS011;54162;54.300;18.592;2022-08-19T05:51:33;22.52;;;14.93;;
67248;SDS011;54162;54.300;18.592;2022-08-19T05:54:04;20.83;;;14.05;;
67248;SDS011;54162;54.300;18.592;2022-08-19T05:56:31;23.63;;;14.90;;
67248;SDS011;54162;54.300;18.592;2022-08-19T05:58:57;20.40;;;14.10;;
67248;SDS011;54162;54.300;18.592;2022-08-19T06:01:23;20.75;;;14.85;;
67248;SDS011;54162;54.300;18.592;2022-08-19T06:03:50;21.60;;;14.93;;
67248;SDS011;54162;54.300;18.592;2022-08-19T06:06:16;24.23;;;14.07;;
67248;SDS011;54162;54.300;18.592;2022-08-19T06:08:42;20.77;;;14.00;;
67248;SDS011;54162;54.300;18.592;2022-08-19T06:11:14;20.33;;;14.00;;
67248;SDS011;54162;54.300;18.592;2022-08-19T06:13:42;24.40;;;14.32;;
67248;SDS011;54162;54.300;18.592;2022-08-19T06:16:12;27.57;;;15.03;;
67248;SDS011;54162;54.300;18.592;2022-08-19T06:18:37;22.25;;;14.90;;
67248;SDS011;54162;54.300;18.592;2022-08-19T06:21:03;25.60;;;14.60;;
67248;SDS011;54162;54.300;18.592;2022-08-19T06:23:29;21.35;;;14.70;;
67248;SDS011;54162;54.300;18.592;2022-08-19T06:25:55;21.20;;;14.23;;
67248;SDS011;54162;54.300;18.592;2022-08-19T06:28:21;22.30;;;13.67;;
67248;SDS011;54162;54.300;18.592;2022-08-19T06:30:48;20.80;;;14.15;;
67248;SDS011;54162;54.300;18.592;2022-08-19T06:33:15;22.48;;;13.90;;
67248;SDS011;54162;54.300;18.592;2022-08-19T06:35:40;20.23;;;13.77;;
67248;SDS011;54162;54.300;18.592;2022-08-19T06:38:07;19.17;;;13.85;;
67248;SDS011;54162;54.300;18.592;2022-08-19T06:40:34;18.63;;;13.38;;
67248;SDS011;54162;54.300;18.592;2022-08-19T06:43:01;22.95;;;13.65;;
67248;SDS011;54162;54.300;18.592;2022-08-19T06:45:27;19.75;;;13.32;;
67248;SDS011;54162;54.300;18.592;2022-08-19T06:47:53;19.27;;;12.77;;
67248;SDS011;54162;54.300;18.592;2022-08-19T06:50:21;19.58;;;13.30;;
67248;SDS011;54162;54.300;18.592;2022-08-19T06:52:47;19.20;;;13.32;;
67248;SDS011;54162;54.300;18.592;2022-08-19T06:55:14;21.40;;;12.80;;
67248;SDS011;54162;54.300;18.592;2022-08-19T06:57:40;18.83;;;12.80;;
67248;SDS011;54162;54.300;18.592;2022-08-19T07:00:07;18.95;;;13.00;;
67248;SDS011;54162;54.300;18.592;2022-08-19T07:02:39;19.67;;;13.00;;
67248;SDS011;54162;54.300;18.592;2022-08-19T07:05:06;14.70;;;12.30;;
67248;SDS011;54162;54.300;18.592;2022-08-19T07:07:35;17.05;;;11.75;;
67248;SDS011;54162;54.300;18.592;2022-08-19T07:10:01;22.37;;;13.47;;
67248;SDS011;54162;54.300;18.592;2022-08-19T07:12:28;17.63;;;12.32;;
67248;SDS011;54162;54.300;18.592;2022-08-19T07:14:58;16.98;;;12.75;;
67248;SDS011;54162;54.300;18.592;2022-08-19T07:17:24;17.27;;;12.70;;
67248;SDS011;54162;54.300;18.592;2022-08-19T07:19:50;15.98;;;11.90;;
67248;SDS011;54162;54.300;18.592;2022-08-19T07:22:16;15.70;;;12.20;;
67248;SDS011;54162;54.300;18.592;2022-08-19T07:24:42;15.40;;;12.35;;
67248;SDS011;54162;54.300;18.592;2022-08-19T07:27:08;16.80;;;12.88;;
67248;SDS011;54162;54.300;18.592;2022-08-19T07:29:35;17.77;;;12.43;;
67248;SDS011;54162;54.300;18.592;2022-08-19T07:32:02;16.67;;;12.40;;
67248;SDS011;54162;54.300;18.592;2022-08-19T07:34:29;19.13;;;12.15;;
67248;SDS011;54162;54.300;18.592;2022-08-19T07:37:03;16.42;;;12.27;;
67248;SDS011;54162;54.300;18.592;2022-08-19T07:39:30;18.50;;;11.93;;
67248;SDS011;54162;54.300;18.592;2022-08-19T07:41:58;15.93;;;11.35;;
67248;SDS011;54162;54.300;18.592;2022-08-19T07:44:26;16.33;;;11.90;;
67248;SDS011;54162;54.300;18.592;2022-08-19T07:46:54;16.17;;;12.77;;
67248;SDS011;54162;54.300;18.592;2022-08-19T07:49:21;17.55;;;12.35;;
67248;SDS011;54162;54.300;18.592;2022-08-19T07:51:52;17.33;;;12.97;;
67248;SDS011;54162;54.300;18.592;2022-08-19T07:54:24;18.30;;;12.52;;
67248;SDS011;54162;54.300;18.592;2022-08-19T07:56:51;16.40;;;12.35;;
67248;SDS011;54162;54.300;18.592;2022-08-19T07:59:17;16.88;;;12.43;;
67248;SDS011;54162;54.300;18.592;2022-08-19T08:01:44;18.50;;;12.10;;
67248;SDS011;54162;54.300;18.592;2022-08-19T08:04:10;13.93;;;11.77;;
67248;SDS011;54162;54.300;18.592;2022-08-19T08:06:54;18.83;;;12.02;;
67248;SDS011;54162;54.300;18.592;2022-08-19T08:09:39;19.25;;;11.70;;
67248;SDS011;54162;54.300;18.592;2022-08-19T08:12:11;14.95;;;11.93;;
67248;SDS011;54162;54.300;18.592;2022-08-19T08:14:42;18.00;;;11.33;;
67248;SDS011;54162;54.300;18.592;2022-08-19T08:17:12;16.45;;;11.70;;
67248;SDS011;54162;54.300;18.592;2022-08-19T08:19:44;15.23;;;11.90;;
67248;SDS011;54162;54.300;18.592;2022-08-19T08:22:13;17.80;;;11.60;;
67248;SDS011;54162;54.300;18.592;2022-08-19T08:25:05;17.73;;;11.88;;
67248;SDS011;54162;54.300;18.592;2022-08-19T08:27:40;18.43;;;10.57;;
67248;SDS011;54162;54.300;18.592;2022-08-19T08:30:07;16.80;;;11.10;;
67248;SDS011;54162;54.300;18.592;2022-08-19T08:32:38;15.65;;;11.27;;
67248;SDS011;54162;54.300;18.592;2022-08-19T08:35:05;17.45;;;10.60;;
67248;SDS011;54162;54.300;18.592;2022-08-19T08:37:32;15.00;;;10.32;;
67248;SDS011;54162;54.300;18.592;2022-08-19T08:39:58;12.60;;;10.60;;
67248;SDS011;54162;54.300;18.592;2022-08-19T08:42:31;16.80;;;9.60;;
67248;SDS011;54162;54.300;18.592;2022-08-19T08:47:32;16.67;;;10.20;;
67248;SDS011;54162;54.300;18.592;2022-08-19T08:52:37;15.52;;;9.18;;
67248;SDS011;54162;54.300;18.592;2022-08-19T08:55:11;12.85;;;9.70;;
67248;SDS011;54162;54.300;18.592;2022-08-19T08:57:50;12.95;;;8.13;;
67248;SDS011;54162;54.300;18.592;2022-08-19T09:00:24;13.70;;;8.43;;
67248;SDS011;54162;54.300;18.592;2022-08-19T09:02:53;14.60;;;8.63;;
67248;SDS011;54162;54.300;18.592;2022-08-19T09:05:19;13.82;;;8.65;;
67248;SDS011;54162;54.300;18.592;2022-08-19T09:16:01;10.90;;;8.20;;
67248;SDS011;54162;54.300;18.592;2022-08-19T09:21:12;12.43;;;7.20;;
67248;SDS011;54162;54.300;18.592;2022-08-19T09:23:39;12.18;;;8.57;;
67248;SDS011;54162;54.300;18.592;2022-08-19T09:26:08;16.10;;;8.37;;
67248;SDS011;54162;54.300;18.592;2022-08-19T09:28:38;12.80;;;8.80;;
67248;SDS011;54162;54.300;18.592;2022-08-19T09:31:11;16.13;;;7.63;;
67248;SDS011;54162;54.300;18.592;2022-08-19T09:33:39;16.00;;;8.40;;
67248;SDS011;54162;54.300;18.592;2022-08-19T09:36:06;12.13;;;8.17;;
67248;SDS011;54162;54.300;18.592;2022-08-19T09:38:33;13.63;;;8.38;;
67248;SDS011;54162;54.300;18.592;2022-08-19T09:41:03;15.23;;;8.68;;
67248;SDS011;54162;54.300;18.592;2022-08-19T09:43:31;20.87;;;9.07;;
67248;SDS011;54162;54.300;18.592;2022-08-19T09:45:57;12.73;;;7.88;;
67248;SDS011;54162;54.300;18.592;2022-08-19T09:48:23;14.77;;;8.00;;
67248;SDS011;54162;54.300;18.592;2022-08-19T09:50:49;10.60;;;7.83;;
67248;SDS011;54162;54.300;18.592;2022-08-19T09:53:16;10.88;;;7.88;;
67248;SDS011;54162;54.300;18.592;2022-08-19T09:55:42;10.83;;;8.03;;
67248;SDS011;54162;54.300;18.592;2022-08-19T09:58:08;13.10;;;8.95;;
67248;SDS011;54162;54.300;18.592;2022-08-19T10:00:34;12.45;;;8.18;;
67248;SDS011;54162;54.300;18.592;2022-08-19T10:03:02;13.10;;;7.90;;
67248;SDS011;54162;54.300;18.592;2022-08-19T10:05:28;9.32;;;7.30;;
67248;SDS011;54162;54.300;18.592;2022-08-19T10:08:12;13.50;;;7.75;;
67248;SDS011;54162;54.300;18.592;2022-08-19T10:10:38;14.07;;;7.70;;
67248;SDS011;54162;54.300;18.592;2022-08-19T10:13:03;10.43;;;7.40;;
67248;SDS011;54162;54.300;18.592;2022-08-19T10:15:29;13.03;;;8.00;;
67248;SDS011;54162;54.300;18.592;2022-08-19T10:17:55;14.70;;;8.18;;
67248;SDS011;54162;54.300;18.592;2022-08-19T10:20:20;13.23;;;7.30;;
67248;SDS011;54162;54.300;18.592;2022-08-19T10:22:47;14.93;;;8.20;;
67248;SDS011;54162;54.300;18.592;2022-08-19T10:25:13;13.87;;;7.53;;
67248;SDS011;54162;54.300;18.592;2022-08-19T10:27:39;13.43;;;7.40;;
67248;SDS011;54162;54.300;18.592;2022-08-19T10:30:05;16.27;;;8.10;;
67248;SDS011;54162;54.300;18.592;2022-08-19T10:32:31;13.85;;;7.75;;
67248;SDS011;54162;54.300;18.592;2022-08-19T10:34:56;13.27;;;8.40;;
67248;SDS011;54162;54.300;18.592;2022-08-19T10:37:22;12.77;;;8.13;;
67248;SDS011;54162;54.300;18.592;2022-08-19T10:39:48;11.73;;;7.43;;
67248;SDS011;54162;54.300;18.592;2022-08-19T10:42:13;12.47;;;7.17;;
67248;SDS011;54162;54.300;18.592;2022-08-19T10:44:41;12.40;;;7.50;;
67248;SDS011;54162;54.300;18.592;2022-08-19T10:47:06;12.68;;;8.02;;
67248;SDS011;54162;54.300;18.592;2022-08-19T10:49:32;11.80;;;8.20;;
67248;SDS011;54162;54.300;18.592;2022-08-19T10:52:17;10.47;;;6.73;;
67248;SDS011;54162;54.300;18.592;2022-08-19T10:54:59;13.75;;;8.77;;
67248;SDS011;54162;54.300;18.592;2022-08-19T10:57:44;16.10;;;8.05;;
67248;SDS011;54162;54.300;18.592;2022-08-19T11:00:09;11.77;;;7.47;;
67248;SDS011;54162;54.300;18.592;2022-08-19T11:02:36;15.50;;;8.40;;
67248;SDS011;54162;54.300;18.592;2022-08-19T11:05:01;13.32;;;7.80;;
67248;SDS011;54162;54.300;18.592;2022-08-19T11:07:28;13.70;;;6.97;;
67248;SDS011;54162;54.300;18.592;2022-08-19T11:09:53;15.10;;;8.70;;
67248;SDS011;54162;54.300;18.592;2022-08-19T11:12:19;12.57;;;7.30;;
67248;SDS011;54162;54.300;18.592;2022-08-19T11:14:44;11.15;;;6.78;;
67248;SDS011;54162;54.300;18.592;2022-08-19T11:17:10;11.63;;;7.37;;
67248;SDS011;54162;54.300;18.592;2022-08-19T11:19:38;14.38;;;8.32;;
67248;SDS011;54162;54.300;18.592;2022-08-19T11:22:07;13.07;;;8.20;;
67248;SDS011;54162;54.300;18.592;2022-08-19T11:24:34;12.75;;;7.80;;
67248;SDS011;54162;54.300;18.592;2022-08-19T11:27:02;14.02;;;8.10;;
67248;SDS011;54162;54.300;18.592;2022-08-19T11:29:31;15.23;;;8.30;;
67248;SDS011;54162;54.300;18.592;2022-08-19T11:31:59;15.02;;;8.63;;
67248;SDS011;54162;54.300;18.592;2022-08-19T11:34:26;15.63;;;7.57;;
67248;SDS011;54162;54.300;18.592;2022-08-19T11:36:53;12.40;;;7.45;;
67248;SDS011;54162;54.300;18.592;2022-08-19T11:39:24;16.00;;;8.20;;
67248;SDS011;54162;54.300;18.592;2022-08-19T11:41:50;12.43;;;8.35;;
67248;SDS011;54162;54.300;18.592;2022-08-19T11:44:16;13.70;;;8.00;;
67248;SDS011;54162;54.300;18.592;2022-08-19T11:46:43;19.15;;;8.77;;
67248;SDS011;54162;54.300;18.592;2022-08-19T11:49:13;12.32;;;9.27;;
67248;SDS011;54162;54.300;18.592;2022-08-19T11:51:40;12.93;;;8.13;;
67248;SDS011;54162;54.300;18.592;2022-08-19T11:54:08;14.43;;;8.57;;
67248;SDS011;54162;54.300;18.592;2022-08-19T11:56:34;16.00;;;8.50;;
67248;SDS011;54162;54.300;18.592;2022-08-19T11:59:02;13.98;;;8.18;;
67248;SDS011;54162;54.300;18.592;2022-08-19T12:01:28;12.37;;;7.40;;
67248;SDS011;54162;54.300;18.592;2022-08-19T12:03:54;14.43;;;8.63;;
67248;SDS011;54162;54.300;18.592;2022-08-19T12:06:25;21.45;;;8.27;;
67248;SDS011;54162;54.300;18.592;2022-08-19T12:08:57;19.77;;;8.10;;
67248;SDS011;54162;54.300;18.592;2022-08-19T12:11:25;12.43;;;8.63;;
67248;SDS011;54162;54.300;18.592;2022-08-19T12:13:50;17.37;;;8.83;;
67248;SDS011;54162;54.300;18.592;2022-08-19T12:16:23;14.65;;;8.23;;
67248;SDS011;54162;54.300;18.592;2022-08-19T12:18:50;15.90;;;8.10;;
67248;SDS011;54162;54.300;18.592;2022-08-19T12:21:18;14.75;;;9.15;;
67248;SDS011;54162;54.300;18.592;2022-08-19T12:23:56;19.10;;;8.30;;
67248;SDS011;54162;54.300;18.592;2022-08-19T12:26:24;11.17;;;7.43;;
67248;SDS011;54162;54.300;18.592;2022-08-19T12:28:51;13.15;;;7.15;;
67248;SDS011;54162;54.300;18.592;2022-08-19T12:31:17;13.00;;;8.00;;
67248;SDS011;54162;54.300;18.592;2022-08-19T12:33:44;12.95;;;7.40;;
67248;SDS011;54162;54.300;18.592;2022-08-19T12:36:11;13.80;;;7.78;;
67248;SDS011;54162;54.300;18.592;2022-08-19T12:38:39;15.27;;;7.40;;
67248;SDS011;54162;54.300;18.592;2022-08-19T12:41:05;11.07;;;7.30;;
67248;SDS011;54162;54.300;18.592;2022-08-19T12:43:34;14.27;;;8.07;;
67248;SDS011;54162;54.300;18.592;2022-08-19T12:46:02;11.80;;;7.65;;
67248;SDS011;54162;54.300;18.592;2022-08-19T12:48:29;14.30;;;8.52;;
67248;SDS011;54162;54.300;18.592;2022-08-19T12:50:55;14.50;;;8.40;;
67248;SDS011;54162;54.300;18.592;2022-08-19T12:53:20;13.25;;;8.38;;
67248;SDS011;54162;54.300;18.592;2022-08-19T12:55:46;17.50;;;8.37;;
67248;SDS011;54162;54.300;18.592;2022-08-19T12:58:11;21.10;;;8.70;;
67248;SDS011;54162;54.300;18.592;2022-08-19T13:00:38;12.93;;;8.45;;
67248;SDS011;54162;54.300;18.592;2022-08-19T13:03:04;14.57;;;7.63;;
67248;SDS011;54162;54.300;18.592;2022-08-19T13:05:31;12.07;;;8.43;;
67248;SDS011;54162;54.300;18.592;2022-08-19T13:08:00;11.43;;;7.47;;
67248;SDS011;54162;54.300;18.592;2022-08-19T13:10:28;16.13;;;8.80;;
67248;SDS011;54162;54.300;18.592;2022-08-19T13:13:06;14.23;;;7.97;;
67248;SDS011;54162;54.300;18.592;2022-08-19T13:15:35;13.65;;;8.63;;
67248;SDS011;54162;54.300;18.592;2022-08-19T13:18:02;17.67;;;7.50;;
67248;SDS011;54162;54.300;18.592;2022-08-19T13:20:28;13.85;;;8.80;;
67248;SDS011;54162;54.300;18.592;2022-08-19T13:22:54;17.17;;;9.00;;
67248;SDS011;54162;54.300;18.592;2022-08-19T13:25:20;11.77;;;7.85;;
67248;SDS011;54162;54.300;18.592;2022-08-19T13:27:46;14.93;;;8.30;;
67248;SDS011;54162;54.300;18.592;2022-08-19T13:30:13;16.02;;;8.40;;
67248;SDS011;54162;54.300;18.592;2022-08-19T13:32:58;17.45;;;8.57;;
67248;SDS011;54162;54.300;18.592;2022-08-19T13:35:37;13.68;;;8.07;;
67248;SDS011;54162;54.300;18.592;2022-08-19T13:38:05;15.68;;;7.55;;
67248;SDS011;54162;54.300;18.592;2022-08-19T13:40:31;13.77;;;8.43;;
67248;SDS011;54162;54.300;18.592;2022-08-19T13:42:58;13.45;;;8.20;;
67248;SDS011;54162;54.300;18.592;2022-08-19T13:45:26;17.67;;;8.52;;
67248;SDS011;54162;54.300;18.592;2022-08-19T13:47:53;18.70;;;8.68;;
67248;SDS011;54162;54.300;18.592;2022-08-19T13:50:25;11.52;;;7.30;;
67248;SDS011;54162;54.300;18.592;2022-08-19T13:52:53;12.37;;;7.70;;
67248;SDS011;54162;54.300;18.592;2022-08-19T13:55:19;12.57;;;6.85;;
67248;SDS011;54162;54.300;18.592;2022-08-19T13:57:49;16.05;;;8.18;;
67248;SDS011;54162;54.300;18.592;2022-08-19T14:00:16;12.02;;;7.32;;
67248;SDS011;54162;54.300;18.592;2022-08-19T14:02:43;13.13;;;7.80;;
67248;SDS011;54162;54.300;18.592;2022-08-19T14:05:12;11.10;;;6.87;;
67248;SDS011;54162;54.300;18.592;2022-08-19T14:07:40;12.45;;;8.07;;
67248;SDS011;54162;54.300;18.592;2022-08-19T14:10:07;15.00;;;8.10;;
67248;SDS011;54162;54.300;18.592;2022-08-19T14:12:34;16.88;;;8.52;;
67248;SDS011;54162;54.300;18.592;2022-08-19T14:15:00;15.50;;;8.25;;
67248;SDS011;54162;54.300;18.592;2022-08-19T14:17:27;18.50;;;7.60;;
67248;SDS011;54162;54.300;18.592;2022-08-19T14:19:57;10.32;;;7.40;;
67248;SDS011;54162;54.300;18.592;2022-08-19T14:22:23;11.80;;;7.80;;
67248;SDS011;54162;54.300;18.592;2022-08-19T14:24:48;13.63;;;7.43;;
67248;SDS011;54162;54.300;18.592;2022-08-19T14:27:15;15.20;;;8.60;;
67248;SDS011;54162;54.300;18.592;2022-08-19T14:29:40;13.20;;;7.43;;
67248;SDS011;54162;54.300;18.592;2022-08-19T14:32:06;17.08;;;7.90;;
67248;SDS011;54162;54.300;18.592;2022-08-19T14:34:31;12.50;;;7.57;;
67248;SDS011;54162;54.300;18.592;2022-08-19T14:36:58;14.27;;;7.80;;